Time;durP1;ratioP1;P1;durP2;ratioP2;P2;SDS_P1;SDS_P2;PMS_P1;PMS_P2;Temp;Humidity;BMP_temperature;BMP_pressure;BME280_temperature;BME280_humidity;BME280_pressure;Samples;Min_cycle;Max_cycle;Signal;HPM_P1;HPM_P2
2022/09/12 07:18:10;;;;;;;9.45;4.38;;;;;;;18.89;61.97;96623.34;2083092;28;20549;-64
2022/09/12 07:19:12;;;;;;;14.05;5.85;;;;;;;18.83;62.66;96631.75;2081630;28;20625;-64
2022/09/12 07:20:13;;;;;;;6.30;4.72;;;;;;;18.83;62.65;96633.53;2082184;28;20225;-65
2022/09/12 07:21:15;;;;;;;7.35;4.70;;;;;;;18.82;63.12;96622.13;2083400;28;20283;-64
2022/09/12 07:22:16;;;;;;;8.52;4.05;;;;;;;18.93;62.48;96627.44;2084169;28;20247;-64
2022/09/12 07:23:17;;;;;;;5.63;4.20;;;;;;;18.89;63.69;96617.19;2081348;28;20363;-65
2022/09/12 07:24:19;;;;;;;6.10;4.00;;;;;;;18.95;62.69;96622.03;2080745;28;20233;-65
2022/09/12 07:39:58;;;;;;;14.95;9.02;;;;;;;19.35;61.01;96595.03;2105978;27;20637;-65
2022/09/12 07:41:00;;;;;;;5.03;3.55;;;;;;;19.77;60.77;96627.88;2106071;28;20777;-66
2022/09/12 07:42:02;;;;;;;4.95;3.33;;;;;;;20.05;59.74;96607.91;2103682;28;20791;-65
2022/09/12 07:43:03;;;;;;;7.05;4.57;;;;;;;20.12;58.99;96608.25;2106138;28;20239;-65
2022/09/12 07:44:08;;;;;;;6.25;2.95;;;;;;;20.51;58.66;96625.22;2100878;28;20200;-66
2022/09/12 07:45:10;;;;;;;5.55;3.22;;;;;;;20.37;59.14;96613.13;2098289;28;20716;-65
2022/09/12 07:46:13;;;;;;;4.07;3.15;;;;;;;20.48;58.91;96619.34;2099671;28;20247;-65
2022/09/12 07:56:04;;;;;;;4.57;3.10;;;;;;;20.84;57.09;96623.31;2084494;28;20912;-65
2022/09/12 07:57:06;;;;;;;7.38;2.78;;;;;;;20.69;58.16;96620.13;2080915;28;20193;-64
2022/09/12 07:58:07;;;;;;;4.70;2.40;;;;;;;21.10;56.39;96604.25;2076852;28;20822;-65
2022/09/12 07:59:09;;;;;;;6.07;2.83;;;;;;;21.71;53.75;96609.59;2070858;28;20194;-67
2022/09/12 08:00:11;;;;;;;4.15;2.90;;;;;;;21.18;55.69;96619.53;2070732;28;20659;-65
2022/09/12 08:01:18;;;;;;;5.25;3.10;;;;;;;20.96;56.31;96613.47;2070681;28;20292;-65
2022/09/12 08:02:20;;;;;;;4.05;2.80;;;;;;;21.22;54.49;96626.25;2069914;28;20684;-65
2022/09/12 08:03:21;;;;;;;5.03;3.10;;;;;;;21.43;55.19;96620.84;2071307;28;20222;-65
2022/09/12 08:04:23;;;;;;;4.72;2.70;;;;;;;21.00;56.02;96604.25;2071870;28;20696;-65
2022/09/12 08:05:24;;;;;;;4.20;3.25;;;;;;;21.25;55.13;96609.22;2071711;28;20242;-65
2022/09/12 08:06:29;;;;;;;4.53;3.28;;;;;;;21.73;54.58;96621.75;2070642;28;20298;-65
2022/09/12 08:07:32;;;;;;;6.38;3.05;;;;;;;21.71;54.57;96622.88;2071259;28;20294;-67
2022/09/12 08:08:35;;;;;;;5.35;3.17;;;;;;;22.42;53.24;96621.75;2077441;28;20566;-67
2022/09/12 08:09:36;;;;;;;3.50;2.90;;;;;;;23.10;51.26;96626.00;2070661;28;20289;-67
2022/09/12 08:10:38;;;;;;;3.80;2.65;;;;;;;23.10;51.20;96629.50;2070658;28;20205;-67
2022/09/12 08:11:39;;;;;;;4.30;2.70;;;;;;;22.35;53.04;96621.44;2070809;28;20226;-67
2022/09/12 08:12:41;;;;;;;3.85;3.25;;;;;;;21.13;55.61;96625.25;2070746;28;20700;-67
2022/09/12 08:13:43;;;;;;;3.60;3.20;;;;;;;21.48;55.10;96620.44;2069451;28;20272;-67
2022/09/12 08:14:45;;;;;;;5.80;3.10;;;;;;;22.02;54.34;96621.75;2069884;28;20248;-67
2022/09/12 08:15:46;;;;;;;6.43;3.35;;;;;;;21.30;55.22;96609.63;2070423;28;20727;-67
2022/09/12 08:16:48;;;;;;;6.47;3.70;;;;;;;21.93;54.59;96622.59;2070488;28;20217;-67
2022/09/12 08:17:49;;;;;;;5.25;3.40;;;;;;;21.49;54.61;96608.84;2069971;28;20700;-67
2022/09/12 08:18:51;;;;;;;4.10;3.10;;;;;;;20.67;57.22;96621.25;2071137;28;20280;-67
2022/09/12 08:19:52;;;;;;;4.57;3.65;;;;;;;20.53;57.29;96606.50;2072452;28;20712;-67
2022/09/12 08:20:58;;;;;;;4.30;3.10;;;;;;;21.24;55.57;96613.66;2070406;28;20333;-67
2022/09/12 08:21:59;;;;;;;5.45;3.35;;;;;;;20.75;56.97;96618.81;2071207;28;20225;-66
2022/09/12 08:23:01;;;;;;;8.27;3.40;;;;;;;20.82;56.54;96616.47;2070251;28;20237;-66
2022/09/12 08:24:04;;;;;;;7.68;3.60;;;;;;;21.25;55.01;96598.59;2078091;28;20205;-67
2022/09/12 08:25:07;;;;;;;8.45;4.32;;;;;;;21.09;56.50;96621.19;2070292;28;20553;-66
2022/09/12 08:26:10;;;;;;;4.30;3.45;;;;;;;21.33;56.08;96617.31;2069609;28;20197;-66
2022/09/12 08:27:13;;;;;;;5.35;3.60;;;;;;;21.20;56.66;96623.75;2070758;28;20337;-66
2022/09/12 08:28:15;;;;;;;6.15;3.55;;;;;;;21.50;55.17;96632.59;2071387;28;20304;-65
2022/09/12 08:29:16;;;;;;;5.00;3.90;;;;;;;21.20;56.49;96622.88;2072805;28;20297;-65
2022/09/12 08:30:18;;;;;;;7.60;4.78;;;;;;;21.69;55.10;96620.38;2070528;28;20197;-66
2022/09/12 08:31:21;;;;;;;9.77;3.55;;;;;;;21.86;55.01;96632.09;2070370;28;20228;-66
2022/09/12 08:32:23;;;;;;;6.93;3.72;;;;;;;22.07;54.75;96633.78;2070916;28;20197;-65
2022/09/12 08:33:26;;;;;;;3.67;2.85;;;;;;;22.28;53.10;96630.97;2070417;28;20574;-66
2022/09/12 08:34:27;;;;;;;7.30;3.58;;;;;;;21.84;52.91;96632.25;2071024;28;20303;-65
2022/09/12 08:35:29;;;;;;;6.10;3.83;;;;;;;21.62;54.17;96625.41;2070623;28;20491;-65
2022/09/12 08:36:31;;;;;;;5.45;3.58;;;;;;;21.46;53.32;96619.75;2070230;28;20200;-65
2022/09/12 08:37:32;;;;;;;4.25;3.00;;;;;;;21.17;53.95;96623.16;2070454;28;20204;-65
2022/09/12 08:38:35;;;;;;;3.28;2.40;;;;;;;21.10;54.00;96598.13;2069922;28;20323;-64
2022/09/12 08:39:36;;;;;;;3.72;2.55;;;;;;;20.73;55.18;96622.56;2070655;28;20299;-65
2022/09/12 08:41:04;;;;;;;4.93;2.80;;;;;;;20.42;56.50;96628.66;2071313;28;20237;-65
2022/09/12 08:42:06;;;;;;;5.43;3.33;;;;;;;20.05;56.96;96605.28;2072730;28;20253;-65
2022/09/12 08:43:31;;;;;;;5.85;3.15;;;;;;;20.04;57.21;96624.78;2070788;28;20198;-65
2022/09/12 08:45:01;;;;;;;10.57;2.60;;;;;;;20.41;55.98;96620.84;2071868;28;20672;-65
2022/09/12 08:46:18;;;;;;;3.65;2.60;;;;;;;20.59;56.25;96623.72;2072322;28;20971;-66
2022/09/12 08:47:37;;;;;;;4.05;2.40;;;;;;;20.22;56.99;96620.56;2070466;28;20294;-65
2022/09/12 08:48:40;;;;;;;6.85;2.65;;;;;;;20.37;56.73;96617.59;2070629;28;20245;-66
2022/09/12 08:50:03;;;;;;;4.03;2.45;;;;;;;20.14;54.96;96619.56;2072663;28;20234;-65
2022/09/12 08:51:11;;;;;;;10.73;2.50;;;;;;;20.56;55.01;96617.72;2071753;28;20519;-65
2022/09/12 08:52:21;;;;;;;6.88;2.75;;;;;;;20.34;55.40;96621.38;2070963;28;20329;-65
2022/09/12 08:53:24;;;;;;;3.90;2.70;;;;;;;20.50;55.21;96628.00;2069502;28;20243;-65
2022/09/12 08:54:28;;;;;;;7.95;3.33;;;;;;;20.15;56.56;96605.31;2070425;28;20905;-65
2022/09/12 08:55:40;;;;;;;4.63;2.40;;;;;;;20.85;54.76;96622.34;2069025;28;20334;-65
2022/09/12 08:56:42;;;;;;;5.95;2.35;;;;;;;20.78;53.90;96599.13;2071535;28;20290;-63
2022/09/12 08:57:43;;;;;;;6.50;2.80;;;;;;;20.77;54.15;96621.34;2077771;28;20297;-64
2022/09/12 08:58:45;;;;;;;4.07;2.42;;;;;;;20.74;53.16;96626.91;2069936;28;20765;-64
2022/09/12 08:59:47;;;;;;;3.30;2.30;;;;;;;20.61;54.13;96619.97;2070599;28;20235;-63
2022/09/12 09:01:20;;;;;;;3.78;2.42;;;;;;;20.22;55.58;96615.28;2070381;28;20203;-63
2022/09/12 09:02:56;;;;;;;3.40;2.33;;;;;;;20.34;55.83;96610.75;2070452;28;20257;-64
2022/09/12 09:04:03;;;;;;;5.35;3.05;;;;;;;20.24;55.54;96623.13;2070576;28;20348;-64
2022/09/12 09:16:00;;;;;;;4.95;2.40;;;;;;;20.45;55.58;96622.25;2095368;28;20219;-63
2022/09/12 09:17:07;;;;;;;4.15;2.80;;;;;;;20.45;55.46;96619.59;2095236;28;20235;-63
2022/09/12 09:18:22;;;;;;;4.78;2.88;;;;;;;20.96;55.30;96628.53;2091168;28;20386;-63
2022/09/12 09:19:33;;;;;;;4.07;2.85;;;;;;;21.00;55.13;96620.19;2078078;28;20768;-63
2022/09/12 09:21:06;;;;;;;9.18;3.08;;;;;;;20.44;55.10;96624.06;2078481;28;20200;-63
2022/09/12 09:22:22;;;;;;;5.40;2.90;;;;;;;21.10;53.81;96609.56;2064910;28;20241;-63
2022/09/12 09:23:32;;;;;;;6.82;2.75;;;;;;;20.79;53.83;96616.75;2073362;28;20265;-63
2022/09/12 09:31:40;;;;;;;8.85;2.35;;;;;;;21.17;54.49;96616.03;2123216;27;20381;-61
2022/09/12 09:32:46;;;;;;;4.05;2.47;;;;;;;21.53;54.38;96619.06;2118488;27;20198;-64
2022/09/12 09:33:50;;;;;;;8.85;3.10;;;;;;;21.12;53.33;96604.97;2099802;27;20247;-64
2022/09/12 09:34:52;;;;;;;5.78;2.72;;;;;;;21.47;52.76;96614.28;2098451;28;20234;-64
2022/09/12 09:36:19;;;;;;;5.07;2.20;;;;;;;21.53;52.97;96621.72;2097394;28;20251;-64
2022/09/12 09:37:28;;;;;;;4.10;2.20;;;;;;;21.90;52.13;96617.56;2097452;28;20290;-64
2022/09/12 09:38:58;;;;;;;5.70;2.80;;;;;;;22.22;51.96;96620.91;2102396;28;20230;-64
2022/09/12 09:40:27;;;;;;;4.78;2.47;;;;;;;21.53;52.46;96627.03;2100342;28;20253;-63
2022/09/12 09:41:36;;;;;;;3.67;2.00;;;;;;;21.47;52.65;96622.25;2097522;28;20223;-63
2022/09/12 09:42:42;;;;;;;3.55;2.13;;;;;;;21.20;52.56;96625.53;2098813;28;20283;-63
2022/09/12 09:50:15;;;;;;;3.83;2.20;;;;;;;21.33;51.07;96591.63;2082746;28;20555;-61
2022/09/12 09:51:23;;;;;;;3.92;2.38;;;;;;;21.76;50.75;96618.81;2081592;28;20278;-61
2022/09/12 09:52:29;;;;;;;4.40;2.08;;;;;;;21.37;51.60;96624.06;2078925;28;20668;-60
2022/09/12 09:53:50;;;;;;;3.50;2.13;;;;;;;21.40;51.31;96612.31;2074771;28;20724;-61
2022/09/12 09:54:57;;;;;;;5.68;2.45;;;;;;;22.25;50.09;96618.78;2074525;28;20293;-61
2022/09/12 09:56:02;;;;;;;9.48;2.00;;;;;;;22.35;49.04;96624.09;2070625;28;20716;-61
2022/09/12 09:57:04;;;;;;;2.85;2.03;;;;;;;22.89;48.33;96623.56;2072320;28;20237;-60
2022/09/12 09:58:05;;;;;;;2.78;1.80;;;;;;;23.05;46.98;96618.44;2072981;28;20600;-61
2022/09/12 09:59:13;;;;;;;4.10;2.40;;;;;;;22.91;46.22;96603.78;2064825;28;20222;-61
2022/09/12 10:00:26;;;;;;;5.20;2.38;;;;;;;23.33;45.74;96628.31;2066223;28;20243;-63
2022/09/12 10:01:27;;;;;;;4.35;2.53;;;;;;;23.53;45.87;96631.66;2065485;28;20540;-63
2022/09/12 10:02:29;;;;;;;3.63;1.95;;;;;;;23.60;45.82;96622.09;2066592;28;20868;-63
2022/09/12 10:03:34;;;;;;;2.50;1.55;;;;;;;23.79;45.85;96610.44;2062335;28;20590;-64
2022/09/12 10:04:40;;;;;;;3.58;2.03;;;;;;;24.31;45.50;96632.94;2063270;28;20195;-64
2022/09/12 10:05:48;;;;;;;2.45;2.00;;;;;;;24.10;45.91;96626.94;2069918;28;20206;-66
2022/09/12 10:13:34;;;;;;;6.53;1.77;;;;;;;25.14;43.37;96613.78;2082256;28;20569;-61
2022/09/12 10:14:40;;;;;;;3.25;1.60;;;;;;;25.40;42.32;96611.03;2082472;28;20204;-61
2022/09/12 10:15:56;;;;;;;3.25;2.28;;;;;;;25.63;42.52;96606.91;2081024;28;20209;-62
2022/09/12 10:16:58;;;;;;;3.85;2.20;;;;;;;25.29;43.31;96616.63;2080134;28;20229;-61
2022/09/12 10:18:01;;;;;;;2.70;1.85;;;;;;;24.98;44.04;96613.69;2082379;28;20354;-62
2022/09/12 10:19:03;;;;;;;4.25;1.85;;;;;;;24.92;41.77;96610.66;2078760;28;20208;-64
2022/09/12 10:20:33;;;;;;;5.05;1.50;;;;;;;26.00;40.33;96606.44;2082281;28;20209;-64
2022/09/12 10:21:46;;;;;;;6.28;2.05;;;;;;;26.63;40.15;96614.81;2083817;28;20678;-64
2022/09/12 10:22:48;;;;;;;2.95;1.75;;;;;;;25.76;41.44;96607.25;2082012;28;20192;-65
2022/09/12 10:23:58;;;;;;;3.03;1.75;;;;;;;25.06;41.42;96611.88;2082397;28;20667;-64
2022/09/12 10:25:00;;;;;;;8.90;1.83;;;;;;;23.96;43.10;96612.31;2082881;28;20232;-63
2022/09/12 10:26:08;;;;;;;3.33;2.25;;;;;;;24.51;43.59;96604.22;2082821;28;20189;-64
2022/09/12 10:27:12;;;;;;;3.25;1.80;;;;;;;25.10;42.89;96610.56;2082759;28;20292;-65
2022/09/12 10:28:26;;;;;;;2.13;1.55;;;;;;;23.70;42.92;96595.38;2083268;28;20235;-65
2022/09/12 10:29:32;;;;;;;3.13;1.70;;;;;;;24.28;43.30;96602.91;2080566;28;20291;-64
2022/09/12 10:30:33;;;;;;;2.80;1.60;;;;;;;24.85;42.16;96600.75;2081810;28;20193;-65
2022/09/12 10:32:00;;;;;;;3.78;1.70;;;;;;;25.14;40.49;96597.75;2082183;28;20208;-65
2022/09/12 10:33:11;;;;;;;4.45;1.60;;;;;;;24.41;42.40;96602.47;2077909;28;20698;-64
2022/09/12 10:34:24;;;;;;;3.13;1.75;;;;;;;25.27;41.22;96607.97;2078654;28;20723;-65
2022/09/12 10:41:10;;;;;;;2.50;1.65;;;;;;;25.37;40.24;96586.47;2084055;28;20553;-61
2022/09/12 10:42:14;;;;;;;5.63;1.77;;;;;;;25.28;40.10;96585.59;2077853;28;20668;-61
2022/09/12 10:43:38;;;;;;;2.78;1.48;;;;;;;26.81;38.57;96598.56;2073973;28;20255;-61
2022/09/12 10:44:52;;;;;;;2.75;1.40;;;;;;;27.00;38.54;96597.31;2069977;28;20676;-61
2022/09/12 10:46:18;;;;;;;3.05;1.73;;;;;;;25.91;39.17;96597.59;2070187;28;20229;-61
2022/09/12 10:47:27;;;;;;;2.33;1.50;;;;;;;25.68;40.11;96596.56;2071120;28;20304;-62
2022/09/12 10:48:30;;;;;;;5.03;1.40;;;;;;;26.00;39.86;96602.94;2070269;28;20686;-61
2022/09/12 10:49:38;;;;;;;2.60;1.33;;;;;;;26.12;39.06;96593.63;2071769;28;20210;-61
2022/09/12 10:50:41;;;;;;;2.08;1.30;;;;;;;26.38;38.41;96601.44;2071759;28;20605;-62
2022/09/12 10:51:43;;;;;;;5.97;1.70;;;;;;;25.84;39.31;96603.75;2070087;28;20284;-62
2022/09/12 10:52:44;;;;;;;4.00;1.50;;;;;;;25.15;40.75;96594.03;2071882;28;20717;-61
2022/09/12 10:53:46;;;;;;;2.10;1.58;;;;;;;25.23;40.48;96607.44;2071740;28;20675;-62
2022/09/12 10:54:49;;;;;;;2.15;1.45;;;;;;;25.22;40.10;96595.09;2071218;28;20204;-62
2022/09/12 10:56:13;;;;;;;1.85;1.45;;;;;;;25.06;40.78;96593.19;2071151;28;20204;-62
2022/09/12 10:57:44;;;;;;;3.47;1.77;;;;;;;25.55;40.13;96587.19;2070815;28;20236;-62
2022/09/12 10:58:52;;;;;;;2.10;1.38;;;;;;;26.41;38.32;96592.28;2069684;28;20248;-62
2022/09/12 11:00:16;;;;;;;3.35;1.48;;;;;;;25.88;39.08;96583.72;2070895;28;20323;-62
2022/09/12 11:01:38;;;;;;;4.43;1.55;;;;;;;26.31;38.67;96576.38;2069491;28;20252;-62
2022/09/12 11:03:05;;;;;;;3.67;1.30;;;;;;;25.32;40.02;96583.41;2070519;28;20205;-61
2022/09/12 11:04:29;;;;;;;2.40;1.50;;;;;;;26.71;38.17;96582.63;2070197;28;20213;-62
2022/09/12 11:05:48;;;;;;;2.65;1.77;;;;;;;26.68;37.74;96582.19;2070384;28;20293;-62
2022/09/12 11:07:09;;;;;;;4.25;1.40;;;;;;;26.03;39.35;96574.03;2070423;28;20198;-62
2022/09/12 11:08:35;;;;;;;8.55;2.03;;;;;;;28.10;35.94;96579.47;2069827;28;20212;-61
2022/09/12 11:09:44;;;;;;;3.15;1.40;;;;;;;27.69;35.57;96574.38;2070459;28;20262;-62
2022/09/12 11:10:58;;;;;;;1.85;1.30;;;;;;;28.45;35.99;96571.75;2069834;28;20233;-62
2022/09/12 11:12:28;;;;;;;2.28;1.10;;;;;;;27.89;34.78;96569.38;2070196;28;20285;-62
2022/09/12 11:13:30;;;;;;;3.65;1.63;;;;;;;28.12;35.07;96579.28;2070957;28;20324;-62
2022/09/12 11:14:40;;;;;;;1.92;1.30;;;;;;;26.19;36.95;96567.84;2071698;28;20205;-62
2022/09/12 11:16:00;;;;;;;1.88;1.30;;;;;;;25.52;38.64;96566.16;2072605;28;20611;-62
2022/09/12 11:17:21;;;;;;;2.15;1.30;;;;;;;26.64;36.48;96570.13;2070523;28;20194;-62
2022/09/12 11:18:32;;;;;;;5.05;1.85;;;;;;;27.16;36.63;96558.91;2071260;28;20300;-62
2022/09/12 11:19:58;;;;;;;1.92;1.17;;;;;;;27.47;36.81;96560.78;2070370;28;20293;-62
2022/09/12 11:21:12;;;;;;;2.38;1.10;;;;;;;28.84;34.19;96559.13;2069846;28;20249;-61
2022/09/12 11:22:32;;;;;;;3.75;1.50;;;;;;;26.96;36.17;96566.53;2070431;28;20296;-61
2022/09/12 11:23:39;;;;;;;2.42;1.25;;;;;;;27.58;35.71;96558.69;2069896;28;20304;-61
2022/09/12 11:25:10;;;;;;;6.88;1.65;;;;;;;26.81;37.52;96562.91;2068905;28;20708;-61
2022/09/12 11:26:27;;;;;;;1.75;1.15;;;;;;;26.39;38.04;96568.31;2070435;28;20620;-61
2022/09/12 11:27:52;;;;;;;2.60;1.17;;;;;;;26.65;37.42;96555.72;2070815;28;20202;-62
2022/09/12 11:28:56;;;;;;;5.97;2.47;;;;;;;26.91;37.44;96568.06;2068312;28;20218;-62
2022/09/12 11:30:12;;;;;;;3.00;1.50;;;;;;;27.23;36.14;96561.72;2070202;28;20204;-62
2022/09/12 11:31:32;;;;;;;6.78;1.70;;;;;;;28.43;34.32;96559.53;2070031;28;20692;-62
2022/09/12 11:32:42;;;;;;;5.78;1.25;;;;;;;28.78;33.67;96549.13;2070193;28;20300;-62
2022/09/12 11:33:46;;;;;;;5.20;1.20;;;;;;;29.02;34.09;96550.66;2069843;28;20237;-62
2022/09/12 11:35:09;;;;;;;1.70;1.10;;;;;;;27.10;36.43;96559.59;2071049;28;20204;-62
2022/09/12 11:36:31;;;;;;;1.55;1.08;;;;;;;26.61;36.95;96549.88;2072665;28;20240;-62
2022/09/12 11:38:10;;;;;;;1.73;1.20;;;;;;;26.74;37.02;96552.06;2070461;28;20285;-62
2022/09/12 11:39:37;;;;;;;2.47;1.40;;;;;;;28.44;35.03;96548.63;2070833;28;20221;-62
2022/09/12 11:40:58;;;;;;;3.60;1.10;;;;;;;29.11;32.67;96556.78;2069699;28;20233;-62
2022/09/12 11:48:36;;;;;;;4.30;1.10;;;;;;;29.55;32.40;96550.50;2088583;27;21076;-61
2022/09/12 11:49:50;;;;;;;2.65;1.10;;;;;;;28.38;33.68;96545.81;2079630;28;20200;-64
2022/09/12 11:50:52;;;;;;;3.45;0.90;;;;;;;29.22;32.89;96534.78;2081116;28;20214;-64
2022/09/12 11:52:17;;;;;;;2.53;1.00;;;;;;;29.77;32.93;96545.13;2081356;28;20235;-64
2022/09/12 11:53:25;;;;;;;1.90;1.38;;;;;;;28.89;33.12;96543.28;2086438;28;20223;-64
2022/09/12 11:54:34;;;;;;;2.15;1.00;;;;;;;28.33;33.61;96512.31;2084459;28;20208;-61
2022/09/12 11:55:46;;;;;;;1.90;1.02;;;;;;;28.11;34.28;96534.66;2076292;28;20230;-62
2022/09/12 11:56:54;;;;;;;2.47;1.70;;;;;;;28.49;33.42;96542.69;2080148;28;20259;-62
2022/09/12 11:57:59;;;;;;;2.55;1.17;;;;;;;28.17;33.56;96532.09;2079603;28;20192;-63
2022/09/12 11:59:10;;;;;;;1.83;0.90;;;;;;;28.42;33.41;96536.41;2086759;28;20270;-62
2022/09/12 12:00:25;;;;;;;3.85;1.05;;;;;;;28.71;33.45;96535.59;2087113;28;20196;-62
2022/09/12 12:07:10;;;;;;;1.95;1.27;;;;;;;28.24;34.46;96534.03;2083459;28;20908;-61
2022/09/12 12:08:13;;;;;;;3.95;0.90;;;;;;;27.42;35.01;96511.41;2079661;28;20196;-62
2022/09/12 12:09:15;;;;;;;3.70;0.98;;;;;;;27.31;35.44;96532.22;2074328;28;20685;-62
2022/09/12 12:10:35;;;;;;;2.00;1.25;;;;;;;26.10;35.96;96520.72;2070898;28;20205;-62
2022/09/12 12:11:42;;;;;;;3.85;1.23;;;;;;;27.71;34.88;96529.44;2073132;28;20613;-63
2022/09/12 12:12:43;;;;;;;2.80;1.10;;;;;;;27.09;35.35;96539.19;2073594;28;20271;-63
2022/09/12 12:14:00;;;;;;;1.48;0.90;;;;;;;26.72;35.60;96533.44;2072445;28;20273;-62
2022/09/12 12:15:02;;;;;;;1.85;1.02;;;;;;;27.30;34.95;96516.28;2073362;28;20231;-63
2022/09/12 12:16:10;;;;;;;2.15;1.00;;;;;;;27.12;35.80;96524.59;2072954;28;20629;-62
2022/09/12 12:22:33;;;;;;;1.63;1.00;;;;;;;29.04;32.32;96508.34;2084119;28;20569;-61
2022/09/12 12:23:35;;;;;;;2.08;1.00;;;;;;;29.29;32.51;96511.53;2073076;28;20248;-62
2022/09/12 12:24:53;;;;;;;2.33;1.10;;;;;;;29.54;31.47;96503.09;2072943;28;20236;-63
2022/09/12 12:25:57;;;;;;;6.53;1.23;;;;;;;29.36;31.24;96508.91;2074407;28;20197;-62
2022/09/12 12:27:02;;;;;;;2.50;0.90;;;;;;;29.70;31.41;96507.41;2072802;28;20427;-61
2022/09/12 12:28:05;;;;;;;1.70;1.00;;;;;;;28.82;32.45;96504.72;2074302;28;20230;-61
2022/09/12 12:29:15;;;;;;;3.60;1.15;;;;;;;29.21;31.58;96505.41;2070864;28;20236;-62
2022/09/12 12:30:29;;;;;;;1.65;0.88;;;;;;;29.86;30.82;96505.47;2073523;28;20233;-62
2022/09/12 12:36:39;;;;;;;2.97;0.80;;;;;;;26.66;35.13;96517.25;2086332;28;21079;-63
2022/09/12 12:37:40;;;;;;;2.38;1.08;;;;;;;26.31;35.29;96511.31;2082494;28;20715;-64
2022/09/12 12:38:42;;;;;;;1.63;1.00;;;;;;;27.92;34.04;96499.28;2075707;28;20652;-65
2022/09/12 12:39:44;;;;;;;2.50;1.10;;;;;;;28.80;31.88;96504.94;2073943;28;20236;-65
2022/09/12 12:40:46;;;;;;;1.50;0.90;;;;;;;28.19;32.16;96494.34;2075405;28;20231;-66
2022/09/12 12:41:47;;;;;;;1.73;1.15;;;;;;;28.94;31.96;96505.94;2074961;28;20284;-62
2022/09/12 12:43:00;;;;;;;2.22;0.88;;;;;;;28.25;32.83;96499.00;2073522;28;20208;-61
2022/09/12 12:44:40;;;;;;;5.57;0.90;;;;;;;27.95;33.21;96490.84;2073984;28;20304;-62
2022/09/12 12:45:47;;;;;;;4.93;3.15;;;;;;;28.47;31.85;96494.53;2080657;28;20299;-61
2022/09/12 12:52:02;;;;;;;3.25;0.95;;;;;;;27.32;34.45;96484.78;2085154;28;20552;-61
2022/09/12 12:53:26;;;;;;;1.50;0.77;;;;;;;26.38;35.42;96481.00;2082040;28;20795;-61
2022/09/12 12:54:40;;;;;;;4.85;1.38;;;;;;;27.73;34.16;96491.72;2075275;28;20194;-61
2022/09/12 12:55:41;;;;;;;1.67;1.20;;;;;;;26.66;34.67;96485.94;2074465;28;20228;-62
2022/09/12 12:56:42;;;;;;;4.55;0.90;;;;;;;26.56;35.18;96487.97;2076853;28;20205;-61
2022/09/12 12:57:51;;;;;;;2.90;0.80;;;;;;;27.78;35.22;96482.13;2077139;28;20208;-61
2022/09/12 12:58:59;;;;;;;2.25;1.00;;;;;;;27.78;34.10;96468.72;2073110;28;20617;-61
2022/09/12 13:04:54;;;;;;;1.70;0.90;;;;;;;29.16;32.30;96441.47;2112806;27;20650;-61
2022/09/12 13:06:06;;;;;;;2.00;0.82;;;;;;;29.73;30.99;96479.28;2107185;28;20332;-60
2022/09/12 13:07:10;;;;;;;1.20;0.73;;;;;;;29.83;31.01;96482.47;2107237;28;20225;-61
2022/09/12 13:08:18;;;;;;;7.43;1.00;;;;;;;29.26;31.08;96479.63;2105325;28;20195;-62
2022/09/12 13:09:20;;;;;;;2.30;0.85;;;;;;;29.60;31.64;96480.81;2099081;28;20238;-61
2022/09/12 13:10:28;;;;;;;4.65;1.20;;;;;;;29.87;32.31;96464.06;2101152;28;20709;-61
2022/09/12 13:11:34;;;;;;;2.55;1.00;;;;;;;28.15;32.31;96468.88;2095746;28;20227;-61
2022/09/12 13:17:42;;;;;;;3.83;1.10;;;;;;;29.38;31.36;96474.63;2093736;27;20543;-60
2022/09/12 13:18:47;;;;;;;1.52;0.90;;;;;;;29.09;31.19;96451.31;2074025;28;20245;-60
2022/09/12 13:19:53;;;;;;;2.22;0.80;;;;;;;29.22;30.94;96470.28;2074768;28;20197;-60
2022/09/12 13:21:20;;;;;;;2.83;0.70;;;;;;;29.25;30.20;96464.50;2072624;28;20206;-61
2022/09/12 13:22:23;;;;;;;1.30;0.70;;;;;;;29.24;29.68;96452.13;2074591;28;20197;-61
2022/09/12 13:23:28;;;;;;;1.10;0.73;;;;;;;29.35;30.17;96468.78;2074068;28;20248;-61
2022/09/12 13:29:28;;;;;;;3.95;1.10;;;;;;;28.66;30.53;96460.94;2084529;28;20565;-62
2022/09/12 13:30:32;;;;;;;2.53;0.95;;;;;;;28.96;30.65;96458.22;2083105;28;20239;-62
2022/09/12 13:31:33;;;;;;;1.27;0.90;;;;;;;28.82;30.15;96459.06;2081795;28;20295;-62
2022/09/12 13:32:35;;;;;;;1.85;0.90;;;;;;;29.00;30.59;96455.97;2081207;28;20236;-62
2022/09/12 13:33:47;;;;;;;1.70;0.85;;;;;;;29.00;30.96;96458.66;2077437;28;20313;-62
2022/09/12 13:35:09;;;;;;;1.10;0.85;;;;;;;28.61;31.27;96457.13;2073010;28;20226;-62
2022/09/12 13:41:06;;;;;;;1.38;0.80;;;;;;;29.64;29.92;96432.84;2083346;28;21083;-61
2022/09/12 13:42:36;;;;;;;2.00;0.90;;;;;;;28.61;31.38;96444.53;2083040;28;21118;-62
2022/09/12 13:43:46;;;;;;;1.48;0.95;;;;;;;28.90;30.12;96442.00;2076249;28;20300;-64
2022/09/12 13:44:51;;;;;;;1.80;0.88;;;;;;;28.19;31.10;96438.00;2074172;28;20776;-64
2022/09/12 13:45:53;;;;;;;1.42;0.80;;;;;;;27.84;30.76;96446.50;2075069;28;20285;-64
2022/09/12 13:46:59;;;;;;;2.03;0.90;;;;;;;28.08;30.72;96428.53;2074861;28;20202;-64
2022/09/12 13:52:58;;;;;;;2.47;0.80;;;;;;;27.70;31.41;96418.63;2091078;28;20560;-63
2022/09/12 13:54:04;;;;;;;2.20;0.80;;;;;;;28.07;31.69;96434.91;2074264;28;20264;-62
2022/09/12 13:55:23;;;;;;;2.33;0.88;;;;;;;28.24;31.75;96440.09;2075277;28;20228;-62
2022/09/12 13:56:25;;;;;;;1.75;0.70;;;;;;;28.14;30.99;96438.53;2075946;28;20229;-63
2022/09/12 13:57:30;;;;;;;2.35;0.90;;;;;;;28.63;30.97;96436.28;2075483;28;20287;-63
2022/09/12 13:58:35;;;;;;;2.40;0.93;;;;;;;28.78;29.93;96438.97;2076182;28;20735;-62
2022/09/12 14:05:56;;;;;;;6.45;0.85;;;;;;;28.40;30.02;96412.25;2103949;28;20282;-63
2022/09/12 14:07:00;;;;;;;1.10;0.70;;;;;;;28.32;29.10;96423.91;2108783;28;20202;-64
2022/09/12 14:08:07;;;;;;;1.42;0.88;;;;;;;28.23;30.37;96414.31;2106806;28;20660;-64
2022/09/12 14:09:13;;;;;;;1.30;0.88;;;;;;;28.25;29.41;96422.97;2086976;28;20609;-64
2022/09/12 14:10:21;;;;;;;1.75;0.80;;;;;;;28.74;29.66;96416.22;2091531;28;20195;-64
2022/09/12 14:11:26;;;;;;;1.25;0.80;;;;;;;29.03;29.43;96415.28;2092491;28;20238;-65
2022/09/12 14:12:35;;;;;;;3.25;1.00;;;;;;;29.25;29.81;96409.91;2091742;28;20197;-64
2022/09/12 14:13:38;;;;;;;1.52;1.00;;;;;;;29.45;29.49;96400.19;2087302;28;20808;-64
2022/09/12 14:14:42;;;;;;;1.00;0.60;;;;;;;29.89;29.22;96416.28;2088123;28;20294;-62
2022/09/12 14:15:47;;;;;;;1.67;0.80;;;;;;;30.17;27.93;96415.44;2087320;28;20214;-62
2022/09/12 14:16:49;;;;;;;1.35;0.60;;;;;;;30.60;28.20;96417.97;2089511;28;20242;-63
2022/09/12 14:18:00;;;;;;;1.77;0.70;;;;;;;29.55;28.62;96404.44;2089530;28;20717;-64
2022/09/12 14:19:01;;;;;;;7.18;0.90;;;;;;;28.81;29.67;96409.03;2086442;28;20274;-64
2022/09/12 14:20:12;;;;;;;2.30;1.00;;;;;;;28.73;29.92;96411.84;2086259;28;20350;-63
2022/09/12 14:21:35;;;;;;;3.30;1.20;;;;;;;27.40;31.34;96411.53;2082941;28;20196;-64
2022/09/12 14:22:37;;;;;;;1.40;0.80;;;;;;;27.24;31.50;96410.63;2086158;28;20201;-64
2022/09/12 14:28:29;;;;;;;2.60;0.82;;;;;;;27.67;30.56;96410.97;2087546;28;20575;-61
2022/09/12 14:29:33;;;;;;;2.42;0.80;;;;;;;28.21;29.95;96405.59;2086968;28;20188;-62
2022/09/12 14:30:36;;;;;;;4.20;1.17;;;;;;;28.36;29.84;96409.09;2086832;28;20284;-61
2022/09/12 14:31:38;;;;;;;2.05;0.70;;;;;;;27.90;30.35;96402.03;2094424;28;20340;-62
2022/09/12 14:32:39;;;;;;;1.45;0.80;;;;;;;27.36;31.02;96398.50;2093351;28;20286;-62
2022/09/12 14:33:55;;;;;;;1.20;0.60;;;;;;;28.47;29.80;96391.69;2085586;28;20750;-62
2022/09/12 14:35:19;;;;;;;1.40;0.80;;;;;;;28.49;30.00;96405.75;2086451;28;20280;-62
2022/09/12 14:36:23;;;;;;;1.30;0.75;;;;;;;28.14;29.90;96405.50;2086131;28;20235;-62
2022/09/12 14:42:12;;;;;;;1.98;0.85;;;;;;;28.48;29.51;96393.34;2084537;28;20564;-61
2022/09/12 14:43:18;;;;;;;1.65;0.80;;;;;;;28.69;29.96;96402.53;2081735;28;20204;-62
2022/09/12 14:44:25;;;;;;;1.20;0.70;;;;;;;28.82;29.08;96395.44;2070011;28;20194;-61
2022/09/12 14:45:29;;;;;;;1.83;0.70;;;;;;;29.06;28.83;96404.16;2071607;28;20209;-61
2022/09/12 14:46:34;;;;;;;2.20;0.90;;;;;;;29.31;28.90;96393.88;2072624;28;20929;-62
2022/09/12 14:47:39;;;;;;;1.95;0.80;;;;;;;29.36;28.65;96390.63;2071366;28;20204;-64
2022/09/12 14:49:09;;;;;;;1.85;0.90;;;;;;;29.38;28.40;96393.09;2073048;28;20271;-62
2022/09/12 14:55:18;;;;;;;2.50;0.77;;;;;;;29.45;28.38;96392.13;2090577;28;20555;-63